Time;durP1;ratioP1;P1;durP2;ratioP2;P2;SDS_P1;SDS_P2;PMS_P1;PMS_P2;Temp;Humidity;BMP_temperature;BMP_pressure;BME280_temperature;BME280_humidity;BME280_pressure;Samples;Min_cycle;Max_cycle;Signal;HPM_P1;HPM_P2
2023/07/09 00:00:40;;;;;;;3.97;2.30;;;;;;;-144.61;100.00;62523.38;5074527;28;20719;-73
2023/07/09 00:03:07;;;;;;;6.15;2.60;;;;;;;-144.61;100.00;62523.38;5067396;28;20241;-74
2023/07/09 00:05:34;;;;;;;4.13;2.10;;;;;;;-144.61;100.00;62523.38;5067499;28;20295;-74
2023/07/09 00:08:01;;;;;;;3.42;2.20;;;;;;;-144.61;100.00;62523.38;5074328;28;20202;-73
2023/07/09 00:10:28;;;;;;;3.55;2.08;;;;;;;-144.61;100.00;62523.38;5088457;28;20210;-74
2023/07/09 00:12:55;;;;;;;5.47;2.30;;;;;;;-144.61;100.00;62523.38;5094142;28;20221;-74
2023/07/09 00:15:21;;;;;;;3.38;2.10;;;;;;;-144.61;100.00;62523.38;5072089;28;20209;-73
2023/07/09 00:17:50;;;;;;;4.80;2.20;;;;;;;-144.61;100.00;62523.38;5072529;28;20569;-73
2023/07/09 00:20:19;;;;;;;4.07;1.95;;;;;;;-144.61;100.00;62523.38;5085118;28;20576;-73
2023/07/09 00:22:47;;;;;;;5.05;2.10;;;;;;;-144.61;100.00;62523.38;5085312;28;20234;-73
2023/07/09 00:25:16;;;;;;;3.15;2.20;;;;;;;-144.61;100.00;62523.38;5092376;28;20207;-73
2023/07/09 00:27:46;;;;;;;2.95;2.13;;;;;;;-144.61;100.00;62523.38;5092521;28;20590;-73
2023/07/09 00:30:17;;;;;;;6.53;2.30;;;;;;;-144.61;100.00;62523.38;5095153;28;20589;-74
2023/07/09 00:32:44;;;;;;;4.90;2.30;;;;;;;-144.61;100.00;62523.38;5097875;28;20677;-73
2023/07/09 00:35:15;;;;;;;2.88;2.05;;;;;;;-144.61;100.00;62523.38;5091900;28;20202;-74
2023/07/09 00:37:43;;;;;;;4.05;2.22;;;;;;;-144.61;100.00;62523.38;5082943;28;20676;-74
2023/07/09 00:40:18;;;;;;;7.05;2.20;;;;;;;-144.61;100.00;62523.38;5097480;28;20229;-74
2023/07/09 00:42:47;;;;;;;3.00;1.83;;;;;;;-144.61;100.00;62523.38;5099952;28;20604;-73
2023/07/09 00:45:22;;;;;;;2.42;1.77;;;;;;;-144.61;100.00;62523.38;5085442;28;20227;-74
2023/07/09 00:47:56;;;;;;;2.60;2.00;;;;;;;-144.61;100.00;62523.38;5101971;28;20226;-73
2023/07/09 00:50:36;;;;;;;5.82;2.25;;;;;;;-144.61;100.00;62523.38;5105168;28;20260;-74
2023/07/09 00:53:10;;;;;;;3.80;2.08;;;;;;;-144.61;100.00;62523.38;5085904;28;20598;-73
2023/07/09 00:55:43;;;;;;;4.72;2.40;;;;;;;-144.61;100.00;62523.38;5100972;28;20741;-73
2023/07/09 00:58:15;;;;;;;5.88;1.95;;;;;;;-144.61;100.00;62523.38;5107254;28;20208;-74
2023/07/09 01:00:47;;;;;;;6.38;2.28;;;;;;;-144.61;100.00;62523.38;5097781;28;20201;-73
2023/07/09 01:03:20;;;;;;;2.70;1.88;;;;;;;-144.61;100.00;62523.38;5096102;28;20263;-74
2023/07/09 01:05:51;;;;;;;4.57;2.00;;;;;;;-144.61;100.00;62523.38;5095961;28;20655;-74
2023/07/09 01:08:19;;;;;;;2.40;1.60;;;;;;;-144.61;100.00;62523.38;5112820;28;20201;-74
2023/07/09 01:10:46;;;;;;;3.40;1.88;;;;;;;-144.61;100.00;62523.38;5099000;28;20721;-73
2023/07/09 01:13:13;;;;;;;3.60;2.20;;;;;;;-144.61;100.00;62523.38;5094771;28;20338;-74
2023/07/09 01:15:40;;;;;;;2.63;1.85;;;;;;;-144.61;100.00;62523.38;5102403;28;20683;-72
2023/07/09 01:18:08;;;;;;;3.50;2.20;;;;;;;-144.61;100.00;62523.38;5102882;28;20244;-74
2023/07/09 01:20:35;;;;;;;2.60;1.60;;;;;;;-144.61;100.00;62523.38;5092393;28;20206;-73
2023/07/09 01:23:05;;;;;;;4.72;1.80;;;;;;;-144.61;100.00;62523.38;5101546;28;20286;-74
2023/07/09 01:25:33;;;;;;;6.18;2.47;;;;;;;-144.61;100.00;62523.38;5103904;28;20209;-73
2023/07/09 01:27:59;;;;;;;3.22;1.75;;;;;;;-144.61;100.00;62523.38;5090117;28;20203;-73
2023/07/09 01:30:31;;;;;;;4.53;1.85;;;;;;;-144.61;100.00;62523.38;5094962;28;20284;-74
2023/07/09 01:33:00;;;;;;;4.60;2.08;;;;;;;-144.61;100.00;62523.38;5105982;28;20653;-74
2023/07/09 01:35:29;;;;;;;2.50;1.95;;;;;;;-144.61;100.00;62523.38;5094805;28;20197;-74
2023/07/09 01:37:56;;;;;;;4.90;1.85;;;;;;;-144.61;100.00;62523.38;5084614;28;20248;-71
2023/07/09 01:40:27;;;;;;;2.55;1.85;;;;;;;-144.61;100.00;62523.38;5102638;28;20637;-74
2023/07/09 01:42:57;;;;;;;2.83;2.17;;;;;;;-144.61;100.00;62523.38;5110815;28;20213;-74
2023/07/09 01:45:24;;;;;;;3.78;2.22;;;;;;;-144.61;100.00;62523.38;5089602;28;20279;-74
2023/07/09 01:47:51;;;;;;;2.70;2.05;;;;;;;-144.61;100.00;62523.38;5092353;28;20219;-74
2023/07/09 01:50:18;;;;;;;2.60;1.90;;;;;;;-144.61;100.00;62523.38;5109383;28;20798;-74
2023/07/09 01:52:46;;;;;;;4.22;1.83;;;;;;;-144.61;100.00;62523.38;5096362;28;20203;-74
2023/07/09 01:55:16;;;;;;;2.90;1.80;;;;;;;-144.61;100.00;62523.38;5095895;28;20270;-74
2023/07/09 01:57:45;;;;;;;2.30;1.85;;;;;;;-144.61;100.00;62523.38;5087609;28;20202;-74
2023/07/09 02:00:14;;;;;;;5.82;1.98;;;;;;;-144.61;100.00;62523.38;5100136;28;20195;-73
2023/07/09 02:02:43;;;;;;;6.65;2.35;;;;;;;-144.61;100.00;62523.38;5085283;28;20230;-74
2023/07/09 02:05:11;;;;;;;4.45;2.10;;;;;;;-144.61;100.00;62523.38;5100694;28;20659;-74
2023/07/09 02:07:37;;;;;;;2.22;1.90;;;;;;;-144.61;100.00;62523.38;5102055;28;20198;-75
2023/07/09 02:10:05;;;;;;;4.18;2.08;;;;;;;-144.61;100.00;62523.38;5087270;28;20650;-73
2023/07/09 02:12:31;;;;;;;5.15;2.00;;;;;;;-144.61;100.00;62523.38;5091027;28;20918;-75
2023/07/09 02:14:59;;;;;;;2.53;1.60;;;;;;;-144.61;100.00;62523.38;5103029;28;20243;-73
2023/07/09 02:17:26;;;;;;;2.55;2.03;;;;;;;-144.61;100.00;62523.38;5103587;28;20248;-73
2023/07/09 02:19:53;;;;;;;2.72;1.90;;;;;;;-144.61;100.00;62523.38;5082099;28;20194;-73
2023/07/09 02:22:20;;;;;;;2.60;2.13;;;;;;;-144.61;100.00;62523.38;5099184;28;20230;-74
2023/07/09 02:24:47;;;;;;;3.00;2.35;;;;;;;-144.61;100.00;62523.38;5107760;28;20236;-73
2023/07/09 02:27:17;;;;;;;5.40;2.20;;;;;;;-144.61;100.00;62523.38;5097459;28;20201;-73
2023/07/09 02:29:44;;;;;;;4.78;2.22;;;;;;;-144.61;100.00;62523.38;5086078;28;20199;-74
2023/07/09 02:32:18;;;;;;;3.40;2.42;;;;;;;-144.61;100.00;62523.38;5103502;28;20205;-74
2023/07/09 02:34:48;;;;;;;2.63;2.20;;;;;;;-144.61;100.00;62523.38;5084897;28;20199;-74
2023/07/09 02:37:16;;;;;;;2.97;1.80;;;;;;;-144.61;100.00;62523.38;5077409;28;20547;-73
2023/07/09 02:39:43;;;;;;;3.05;2.20;;;;;;;-144.61;100.00;62523.38;5101414;28;20212;-73
2023/07/09 02:42:11;;;;;;;6.63;2.40;;;;;;;-144.61;100.00;62523.38;5094993;28;20231;-74
2023/07/09 02:44:37;;;;;;;2.70;2.15;;;;;;;-144.61;100.00;62523.38;5078022;28;20325;-73
2023/07/09 02:47:05;;;;;;;5.60;2.05;;;;;;;-144.61;100.00;62523.38;5098662;28;20209;-74
2023/07/09 02:49:33;;;;;;;4.53;2.00;;;;;;;-144.61;100.00;62523.38;5097671;28;20225;-74
2023/07/09 02:52:00;;;;;;;1.83;1.60;;;;;;;-144.61;100.00;62523.38;5098934;28;20212;-73
2023/07/09 02:54:27;;;;;;;3.78;2.28;;;;;;;-144.61;100.00;62523.38;5095318;28;20194;-72
2023/07/09 02:56:54;;;;;;;5.55;2.22;;;;;;;-144.61;100.00;62523.38;5090512;28;20194;-74
2023/07/09 02:59:21;;;;;;;5.78;2.50;;;;;;;-144.61;100.00;62523.38;5102589;28;20204;-74
2023/07/09 03:01:48;;;;;;;2.80;1.85;;;;;;;-144.61;100.00;62523.38;5089730;28;20229;-72
2023/07/09 03:04:15;;;;;;;4.30;2.13;;;;;;;-144.61;100.00;62523.38;5091373;28;20603;-72
2023/07/09 03:06:44;;;;;;;3.15;2.20;;;;;;;-144.61;100.00;62523.38;5088889;28;20202;-72
2023/07/09 03:09:11;;;;;;;2.60;1.73;;;;;;;-144.61;100.00;62523.38;5096840;28;20205;-72
2023/07/09 03:11:38;;;;;;;2.75;2.20;;;;;;;-144.61;100.00;62523.38;5079707;28;20203;-73
2023/07/09 03:14:05;;;;;;;4.00;1.98;;;;;;;-144.61;100.00;62523.38;5091903;28;20197;-73
2023/07/09 03:16:35;;;;;;;3.47;2.35;;;;;;;-144.61;100.00;62523.38;5109660;28;20209;-73
2023/07/09 03:19:03;;;;;;;3.60;2.17;;;;;;;-144.61;100.00;62523.38;5096317;28;20198;-74
2023/07/09 03:21:29;;;;;;;3.33;2.17;;;;;;;-144.61;100.00;62523.38;5089856;28;20887;-73
2023/07/09 03:23:58;;;;;;;3.40;2.40;;;;;;;-144.61;100.00;62523.38;5103590;28;20282;-73
2023/07/09 03:26:25;;;;;;;3.40;2.25;;;;;;;-144.61;100.00;62523.38;5097985;28;20201;-72
2023/07/09 03:28:52;;;;;;;4.47;2.17;;;;;;;-144.61;100.00;62523.38;5091543;28;20228;-72
2023/07/09 03:31:19;;;;;;;8.05;2.17;;;;;;;-144.61;100.00;62523.38;5098141;28;20194;-73
2023/07/09 03:33:47;;;;;;;3.47;2.40;;;;;;;-144.61;100.00;62523.38;5103142;28;20702;-73
2023/07/09 03:36:14;;;;;;;5.32;2.60;;;;;;;-144.61;100.00;62523.38;5085812;28;20202;-73
2023/07/09 03:38:41;;;;;;;4.05;3.05;;;;;;;-144.61;100.00;62523.38;5096988;28;20730;-73
2023/07/09 03:41:09;;;;;;;3.08;2.40;;;;;;;-144.61;100.00;62523.38;5090877;28;20206;-73
2023/07/09 03:43:36;;;;;;;5.82;3.22;;;;;;;-144.61;100.00;62523.38;5075900;28;20297;-73
2023/07/09 03:46:03;;;;;;;6.43;3.28;;;;;;;-144.61;100.00;62523.38;5078242;28;20198;-73
2023/07/09 03:48:30;;;;;;;5.25;2.83;;;;;;;-144.61;100.00;62523.38;5106726;28;20221;-75
2023/07/09 03:50:56;;;;;;;4.95;3.08;;;;;;;-144.61;100.00;62523.38;5110863;28;20679;-73
2023/07/09 03:53:23;;;;;;;3.40;2.55;;;;;;;-144.61;100.00;62523.38;5097629;28;20232;-72
2023/07/09 03:55:54;;;;;;;4.57;3.00;;;;;;;-144.61;100.00;62523.38;5098929;28;20208;-73
2023/07/09 03:58:22;;;;;;;8.18;3.08;;;;;;;-144.61;100.00;62523.38;5100867;28;20201;-73
2023/07/09 04:00:49;;;;;;;6.55;3.05;;;;;;;-144.61;100.00;62523.38;5083556;28;20202;-73
2023/07/09 04:03:16;;;;;;;3.83;2.95;;;;;;;-144.61;100.00;62523.38;5102030;28;20229;-73
2023/07/09 04:05:43;;;;;;;5.15;2.88;;;;;;;-144.61;100.00;62523.38;5091253;28;20191;-73
2023/07/09 04:08:09;;;;;;;5.75;2.58;;;;;;;-144.61;100.00;62523.38;5110611;28;20197;-72
2023/07/09 04:10:36;;;;;;;6.22;3.00;;;;;;;-144.61;100.00;62523.38;5100467;28;20611;-73
2023/07/09 04:13:03;;;;;;;2.97;2.38;;;;;;;-144.61;100.00;62523.38;5095660;28;20664;-72
2023/07/09 04:15:31;;;;;;;4.75;2.90;;;;;;;-144.61;100.00;62523.38;5097000;28;20201;-73
2023/07/09 04:17:58;;;;;;;6.88;2.80;;;;;;;-144.61;100.00;62523.38;5100301;28;20236;-73
2023/07/09 04:20:25;;;;;;;6.47;2.65;;;;;;;-144.61;100.00;62523.38;5100215;28;20558;-74
2023/07/09 04:22:52;;;;;;;4.00;2.35;;;;;;;-144.61;100.00;62523.38;5100535;28;20286;-73
2023/07/09 04:25:18;;;;;;;3.28;2.30;;;;;;;-144.61;100.00;62523.38;5106590;28;20202;-73
2023/07/09 04:27:45;;;;;;;5.75;2.80;;;;;;;-144.61;100.00;62523.38;5106087;28;20247;-73
2023/07/09 04:30:14;;;;;;;4.75;2.40;;;;;;;-144.61;100.00;62523.38;5092358;28;20592;-74
2023/07/09 04:32:44;;;;;;;5.85;2.40;;;;;;;-144.61;100.00;62523.38;5104795;28;20288;-73
2023/07/09 04:35:12;;;;;;;3.17;2.55;;;;;;;-144.61;100.00;62523.38;5109439;28;20205;-72
2023/07/09 04:37:39;;;;;;;5.07;2.40;;;;;;;-144.61;100.00;62523.38;5082853;28;20191;-75
2023/07/09 04:40:10;;;;;;;5.72;2.65;;;;;;;-144.61;100.00;62523.38;5093499;28;20215;-74
2023/07/09 04:42:37;;;;;;;8.48;2.95;;;;;;;-144.61;100.00;62523.38;5108860;28;20205;-73
2023/07/09 04:45:05;;;;;;;4.18;2.47;;;;;;;-144.61;100.00;62523.38;5096226;28;20238;-74
2023/07/09 04:47:31;;;;;;;3.28;2.20;;;;;;;-144.61;100.00;62523.38;5098668;28;20209;-73
2023/07/09 04:49:59;;;;;;;3.80;2.60;;;;;;;-144.61;100.00;62523.38;5105501;28;20202;-74
2023/07/09 04:52:26;;;;;;;3.95;2.47;;;;;;;-144.61;100.00;62523.38;5101154;28;20251;-73
2023/07/09 04:54:53;;;;;;;3.83;2.58;;;;;;;-144.61;100.00;62523.38;5092972;28;20654;-75
2023/07/09 04:57:20;;;;;;;5.75;2.50;;;;;;;-144.61;100.00;62523.38;5105247;28;20254;-73
2023/07/09 04:59:47;;;;;;;3.05;2.53;;;;;;;-144.61;100.00;62523.38;5096783;28;20195;-74
2023/07/09 05:02:14;;;;;;;4.13;2.58;;;;;;;-144.61;100.00;62523.38;5080013;28;20210;-73
2023/07/09 05:04:40;;;;;;;3.38;2.53;;;;;;;-144.61;100.00;62523.38;5097367;28;20259;-73
2023/07/09 05:07:09;;;;;;;4.57;2.70;;;;;;;-144.61;100.00;62523.38;5106385;28;20205;-73
2023/07/09 05:09:35;;;;;;;6.68;3.05;;;;;;;-144.61;100.00;62523.38;5092072;28;20211;-75
2023/07/09 05:12:02;;;;;;;4.70;2.65;;;;;;;-144.61;100.00;62523.38;5091522;28;20197;-73
2023/07/09 05:14:29;;;;;;;4.25;2.70;;;;;;;-144.61;100.00;62523.38;5103319;28;20232;-74
2023/07/09 05:16:56;;;;;;;6.65;2.53;;;;;;;-144.61;100.00;62523.38;5110600;28;20942;-75
2023/07/09 05:19:23;;;;;;;3.90;2.53;;;;;;;-144.61;100.00;62523.38;5095929;28;20205;-75
2023/07/09 05:21:49;;;;;;;4.63;2.67;;;;;;;-144.61;100.00;62523.38;5088975;28;20195;-75
2023/07/09 05:24:18;;;;;;;3.45;2.78;;;;;;;-144.61;100.00;62523.38;5101020;28;20686;-73
2023/07/09 05:26:44;;;;;;;7.28;2.70;;;;;;;-144.61;100.00;62523.38;5080386;28;20579;-74
2023/07/09 05:29:11;;;;;;;4.13;2.70;;;;;;;-144.61;100.00;62523.38;5093140;28;20198;-77
2023/07/09 05:31:38;;;;;;;3.38;2.22;;;;;;;-144.61;100.00;62523.38;5085150;28;20210;-75
2023/07/09 05:34:05;;;;;;;3.25;2.20;;;;;;;-144.61;100.00;62523.38;5071569;28;20257;-74
2023/07/09 05:36:32;;;;;;;4.72;2.92;;;;;;;-144.61;100.00;62523.38;5079068;28;20295;-72
2023/07/09 05:38:58;;;;;;;4.55;2.97;;;;;;;-144.61;100.00;62523.38;5097779;28;20223;-74
2023/07/09 05:41:26;;;;;;;5.65;2.95;;;;;;;-144.61;100.00;62523.38;5101817;28;20594;-72
2023/07/09 05:43:53;;;;;;;4.38;2.70;;;;;;;-144.61;100.00;62523.38;5103993;28;20233;-75
2023/07/09 05:46:22;;;;;;;3.70;2.83;;;;;;;-144.61;100.00;62523.38;5093711;28;20290;-76
2023/07/09 05:48:49;;;;;;;4.53;2.88;;;;;;;-144.61;100.00;62523.38;5107094;28;20270;-72
2023/07/09 05:51:16;;;;;;;3.42;2.53;;;;;;;-144.61;100.00;62523.38;5083442;28;20211;-73
2023/07/09 05:53:43;;;;;;;6.00;2.40;;;;;;;-144.61;100.00;62523.38;5103112;28;20259;-74
2023/07/09 05:56:10;;;;;;;6.65;3.00;;;;;;;-144.61;100.00;62523.38;5101012;28;20248;-73
2023/07/09 05:58:38;;;;;;;5.53;2.67;;;;;;;-144.61;100.00;62523.38;5105666;28;20609;-75
2023/07/09 06:01:05;;;;;;;6.03;2.53;;;;;;;-144.61;100.00;62523.38;5081537;28;20638;-74
2023/07/09 06:03:33;;;;;;;6.65;2.83;;;;;;;-144.61;100.00;62523.38;5102564;28;20230;-77
2023/07/09 06:06:00;;;;;;;4.60;2.85;;;;;;;-144.61;100.00;62523.38;5099423;28;20195;-79
2023/07/09 06:08:27;;;;;;;4.35;2.90;;;;;;;-144.61;100.00;62523.38;5111705;28;20205;-77
2023/07/09 06:10:56;;;;;;;10.38;3.50;;;;;;;-144.61;100.00;62523.38;5093864;28;20199;-78
2023/07/09 06:13:23;;;;;;;3.97;2.85;;;;;;;-144.61;100.00;62523.38;5098650;28;20201;-79
2023/07/09 06:15:55;;;;;;;4.63;2.63;;;;;;;-144.61;100.00;62523.38;5070841;28;20195;-75
2023/07/09 06:18:23;;;;;;;4.55;2.85;;;;;;;-144.61;100.00;62523.38;5074647;28;20670;-79
2023/07/09 06:20:51;;;;;;;4.63;3.00;;;;;;;-144.61;100.00;62523.38;5085002;28;20201;-79
2023/07/09 06:23:19;;;;;;;4.00;2.85;;;;;;;-144.61;100.00;62523.38;5089770;28;20280;-78
2023/07/09 06:25:47;;;;;;;4.35;2.58;;;;;;;-144.61;100.00;62523.38;5103096;28;20198;-76
2023/07/09 06:28:15;;;;;;;4.80;3.30;;;;;;;-144.61;100.00;62523.38;5090305;28;20568;-79
2023/07/09 06:30:42;;;;;;;3.45;2.45;;;;;;;-144.61;100.00;62523.38;5090316;28;20290;-76
2023/07/09 06:33:11;;;;;;;6.25;2.78;;;;;;;-144.61;100.00;62523.38;5090849;28;20650;-80
2023/07/09 06:35:39;;;;;;;6.53;2.70;;;;;;;-144.61;100.00;62523.38;5092960;28;20194;-74
2023/07/09 06:38:06;;;;;;;3.20;2.33;;;;;;;-144.61;100.00;62523.38;5088667;28;20654;-72
2023/07/09 06:40:33;;;;;;;5.93;2.53;;;;;;;-144.61;100.00;62523.38;5088580;28;20848;-76
2023/07/09 06:43:00;;;;;;;4.45;2.97;;;;;;;-144.61;100.00;62523.38;5088076;28;20255;-80
2023/07/09 06:45:27;;;;;;;3.53;2.90;;;;;;;-144.61;100.00;62523.38;5081226;28;20206;-80
2023/07/09 06:47:53;;;;;;;3.90;2.75;;;;;;;-144.61;100.00;62523.38;5084327;28;20275;-72
2023/07/09 06:50:22;;;;;;;4.40;2.70;;;;;;;-144.61;100.00;62523.38;5081024;28;20209;-70
2023/07/09 06:52:48;;;;;;;3.03;2.50;;;;;;;-144.61;100.00;62523.38;5082248;28;20249;-78
2023/07/09 06:55:15;;;;;;;7.00;3.20;;;;;;;-144.61;100.00;62523.38;5082321;28;20209;-82
2023/07/09 06:57:42;;;;;;;5.75;2.90;;;;;;;-144.61;100.00;62523.38;5083366;28;20205;-84
2023/07/09 07:00:10;;;;;;;3.92;3.05;;;;;;;-144.61;100.00;62523.38;5086784;28;20198;-79
2023/07/09 07:02:37;;;;;;;5.00;3.30;;;;;;;-144.61;100.00;62523.38;5090093;28;20203;-81
2023/07/09 07:05:04;;;;;;;4.00;3.20;;;;;;;-144.61;100.00;62523.38;5086591;28;20325;-82
2023/07/09 07:07:32;;;;;;;13.30;6.82;;;;;;;-144.61;100.00;62523.38;5088983;28;20198;-82
2023/07/09 07:09:59;;;;;;;24.05;9.57;;;;;;;-144.61;100.00;62523.38;5090743;28;20659;-82
2023/07/09 07:12:28;;;;;;;3.58;2.65;;;;;;;-144.61;100.00;62523.38;5084212;28;20210;-78
2023/07/09 07:14:55;;;;;;;4.53;2.60;;;;;;;-144.61;100.00;62523.38;5085763;28;20198;-83
2023/07/09 07:17:23;;;;;;;5.28;2.90;;;;;;;-144.61;100.00;62523.38;5087551;28;20198;-73
2023/07/09 07:19:51;;;;;;;4.53;2.90;;;;;;;-144.61;100.00;62523.38;5085988;28;20305;-80
2023/07/09 07:22:18;;;;;;;5.47;3.80;;;;;;;-144.61;100.00;62523.38;5086731;28;20251;-74
2023/07/09 07:24:46;;;;;;;7.20;4.10;;;;;;;-144.61;100.00;62523.38;5082253;28;20234;-73
2023/07/09 07:27:13;;;;;;;6.43;3.13;;;;;;;-144.61;100.00;62523.38;5089943;28;20232;-78
2023/07/09 07:29:39;;;;;;;4.20;2.80;;;;;;;-144.61;100.00;62523.38;5086698;28;20202;-88
2023/07/09 07:32:08;;;;;;;4.82;3.00;;;;;;;-144.61;100.00;62523.38;5088740;28;20591;-80
2023/07/09 07:34:35;;;;;;;5.80;3.42;;;;;;;-144.61;100.00;62523.38;5088987;28;20198;-79
2023/07/09 07:37:02;;;;;;;8.07;3.95;;;;;;;-144.61;100.00;62523.38;5088861;28;20202;-79
2023/07/09 07:39:28;;;;;;;3.05;2.75;;;;;;;-144.61;100.00;62523.38;5088551;28;20210;-76
2023/07/09 07:41:57;;;;;;;9.73;4.20;;;;;;;-144.61;100.00;62523.38;5086497;28;20415;-83
2023/07/09 07:44:23;;;;;;;3.85;3.35;;;;;;;-144.61;100.00;62523.38;5087611;28;20251;-85
2023/07/09 07:46:51;;;;;;;6.80;3.88;;;;;;;-144.61;100.00;62523.38;5082329;28;20203;-80
2023/07/09 07:49:18;;;;;;;4.38;2.90;;;;;;;-144.61;100.00;62523.38;5086419;28;20202;-79
2023/07/09 07:51:45;;;;;;;5.25;3.20;;;;;;;-144.61;100.00;62523.38;5087565;28;20542;-82
2023/07/09 07:54:12;;;;;;;4.05;2.70;;;;;;;-144.61;100.00;62523.38;5084572;28;20251;-82
2023/07/09 07:56:39;;;;;;;4.03;3.53;;;;;;;-144.61;100.00;62523.38;5088506;28;20202;-83
2023/07/09 07:59:07;;;;;;;6.38;3.40;;;;;;;-144.61;100.00;62523.38;5082190;28;20233;-83
2023/07/09 08:01:35;;;;;;;4.22;2.92;;;;;;;-144.61;100.00;62523.38;5087941;28;20202;-80
2023/07/09 08:04:02;;;;;;;8.63;2.92;;;;;;;-144.61;100.00;62523.38;5088560;28;20276;-78
2023/07/09 08:06:31;;;;;;;3.72;3.08;;;;;;;-144.61;100.00;62523.38;5088742;28;20206;-80
2023/07/09 08:08:58;;;;;;;4.22;3.10;;;;;;;-144.61;100.00;62523.38;5089122;28;20207;-82
2023/07/09 08:11:27;;;;;;;6.13;2.80;;;;;;;-144.61;100.00;62523.38;5088708;28;20588;-81
2023/07/09 08:13:54;;;;;;;4.18;2.63;;;;;;;-144.61;100.00;62523.38;5102834;28;20687;-74
2023/07/09 08:16:22;;;;;;;5.97;3.08;;;;;;;-144.61;100.00;62523.38;5088009;28;20738;-71
2023/07/09 08:18:51;;;;;;;3.13;2.80;;;;;;;-144.61;100.00;62523.38;5090330;28;20259;-78
2023/07/09 08:21:18;;;;;;;6.13;2.83;;;;;;;-144.61;100.00;62523.38;5089954;28;20214;-76
2023/07/09 08:23:46;;;;;;;7.82;4.65;;;;;;;-144.61;100.00;62523.38;5070216;28;20227;-75
2023/07/09 08:26:13;;;;;;;6.13;3.30;;;;;;;-144.61;100.00;62523.38;5088515;28;20210;-82
2023/07/09 08:28:40;;;;;;;4.53;3.05;;;;;;;-144.61;100.00;62523.38;5091551;28;20202;-81
2023/07/09 08:31:06;;;;;;;4.43;2.40;;;;;;;-144.61;100.00;62523.38;5089027;28;20295;-79
2023/07/09 08:33:35;;;;;;;3.63;2.90;;;;;;;-144.61;100.00;62523.38;5068433;28;20215;-81
2023/07/09 08:36:01;;;;;;;3.97;2.95;;;;;;;-144.61;100.00;62523.38;5071142;28;20409;-83
2023/07/09 08:38:28;;;;;;;4.35;3.25;;;;;;;-144.61;100.00;62523.38;5071316;28;20237;-80
2023/07/09 08:41:00;;;;;;;3.08;2.75;;;;;;;-144.61;100.00;62523.38;5071403;28;20214;-76
2023/07/09 08:43:36;;;;;;;4.15;3.00;;;;;;;-144.61;100.00;62523.38;5075439;28;20299;-80
2023/07/09 08:46:11;;;;;;;5.68;3.13;;;;;;;-144.61;100.00;62523.38;5092104;28;20665;-80
2023/07/09 08:48:44;;;;;;;6.43;3.58;;;;;;;-144.61;100.00;62523.38;5099187;28;20217;-83
2023/07/09 08:51:16;;;;;;;4.97;3.13;;;;;;;-144.61;100.00;62523.38;5084122;28;20194;-79
2023/07/09 08:53:49;;;;;;;8.85;3.15;;;;;;;-144.61;100.00;62523.38;5092255;28;20206;-79
2023/07/09 08:56:17;;;;;;;6.13;3.33;;;;;;;-144.61;100.00;62523.38;5091906;28;20285;-77
2023/07/09 08:58:45;;;;;;;3.75;2.88;;;;;;;-144.61;100.00;62523.38;5091990;28;20210;-82
2023/07/09 09:01:20;;;;;;;3.97;3.20;;;;;;;-144.61;100.00;62523.38;5074414;28;20705;-84
2023/07/09 09:03:51;;;;;;;5.25;3.65;;;;;;;-144.61;100.00;62523.38;5079875;28;20701;-79
2023/07/09 09:06:22;;;;;;;4.78;3.60;;;;;;;-144.61;100.00;62523.38;5076602;28;20208;-78
2023/07/09 09:08:59;;;;;;;3.53;2.97;;;;;;;-144.61;100.00;62523.38;5078705;28;20195;-81
2023/07/09 09:11:34;;;;;;;3.50;2.97;;;;;;;-144.61;100.00;62523.38;5079176;28;20206;-78
2023/07/09 09:14:07;;;;;;;5.53;3.50;;;;;;;-144.61;100.00;62523.38;5087577;28;20190;-81
2023/07/09 09:16:39;;;;;;;6.18;3.05;;;;;;;-144.61;100.00;62523.38;5071113;28;20546;-81
2023/07/09 09:19:20;;;;;;;5.65;3.35;;;;;;;-144.61;100.00;62523.38;5071520;28;20203;-80
2023/07/09 09:21:48;;;;;;;4.85;3.22;;;;;;;-144.61;100.00;62523.38;5090392;28;20200;-77
2023/07/09 09:24:18;;;;;;;6.45;2.97;;;;;;;-144.61;100.00;62523.38;5090968;28;20241;-77
2023/07/09 09:26:45;;;;;;;5.05;3.10;;;;;;;-144.61;100.00;62523.38;5104076;28;20672;-72
2023/07/09 09:29:13;;;;;;;5.50;3.25;;;;;;;-144.61;100.00;62523.38;5077676;28;20577;-75
2023/07/09 09:31:42;;;;;;;9.00;3.33;;;;;;;-144.61;100.00;62523.38;5090672;28;20335;-72
2023/07/09 09:34:20;;;;;;;6.05;3.20;;;;;;;-144.61;100.00;62523.38;5091049;28;20275;-74
2023/07/09 09:36:48;;;;;;;5.18;3.05;;;;;;;-144.61;100.00;62523.38;5098912;28;20193;-71
2023/07/09 09:39:15;;;;;;;3.72;3.05;;;;;;;-144.61;100.00;62523.38;5070082;28;20622;-73
2023/07/09 09:41:42;;;;;;;7.20;3.13;;;;;;;-144.61;100.00;62523.38;5068682;28;20244;-73
2023/07/09 09:44:19;;;;;;;4.35;3.40;;;;;;;-144.61;100.00;62523.38;5069602;28;20239;-74
2023/07/09 09:46:47;;;;;;;4.10;2.97;;;;;;;-144.61;100.00;62523.38;5090142;28;20275;-74
2023/07/09 09:49:13;;;;;;;6.88;3.10;;;;;;;-144.61;100.00;62523.38;5091308;28;20263;-73
2023/07/09 09:51:46;;;;;;;4.00;2.83;;;;;;;-144.61;100.00;62523.38;5084985;28;20256;-74
2023/07/09 09:54:19;;;;;;;6.00;3.40;;;;;;;-144.61;100.00;62523.38;5070498;28;20206;-74
2023/07/09 09:56:46;;;;;;;3.72;3.10;;;;;;;-144.61;100.00;62523.38;5077619;28;20241;-76
2023/07/09 09:59:20;;;;;;;4.22;2.80;;;;;;;-144.61;100.00;62523.38;5090938;28;20255;-75
2023/07/09 10:01:48;;;;;;;3.78;2.95;;;;;;;-144.61;100.00;62523.38;5070331;28;20194;-75
2023/07/09 10:04:19;;;;;;;4.95;2.90;;;;;;;-144.61;100.00;62523.38;5069928;28;20665;-74
2023/07/09 10:06:51;;;;;;;4.53;3.40;;;;;;;-144.61;100.00;62523.38;5079173;28;20558;-76
2023/07/09 10:09:28;;;;;;;3.20;2.90;;;;;;;-144.61;100.00;62523.38;5090717;28;20202;-70
2023/07/09 10:12:03;;;;;;;6.45;3.20;;;;;;;-144.61;100.00;62523.38;5089997;28;20677;-70
2023/07/09 10:14:39;;;;;;;4.25;2.90;;;;;;;-144.61;100.00;62523.38;5090480;28;20243;-74
2023/07/09 10:17:19;;;;;;;3.83;2.83;;;;;;;-144.61;100.00;62523.38;5090287;28;20561;-74
2023/07/09 10:19:54;;;;;;;5.05;3.15;;;;;;;-144.61;100.00;62523.38;5098361;28;20197;-75
2023/07/09 10:22:43;;;;;;;4.13;3.28;;;;;;;-144.61;100.00;62523.38;5076712;28;20194;-77
2023/07/09 10:25:25;;;;;;;3.10;2.70;;;;;;;-144.61;100.00;62523.38;5069735;28;20223;-75
2023/07/09 10:28:03;;;;;;;4.40;2.70;;;;;;;-144.61;100.00;62523.38;5077870;28;20577;-75
2023/07/09 10:30:43;;;;;;;4.55;3.03;;;;;;;-144.61;100.00;62523.38;5089478;28;20587;-74
2023/07/09 10:33:11;;;;;;;5.93;3.30;;;;;;;-144.61;100.00;62523.38;5096476;28;20195;-74
2023/07/09 10:35:43;;;;;;;3.97;3.28;;;;;;;-144.61;100.00;62523.38;5095028;28;20499;-73
2023/07/09 10:38:23;;;;;;;9.68;3.30;;;;;;;-144.61;100.00;62523.38;5085625;28;20385;-71
2023/07/09 10:40:55;;;;;;;4.50;3.30;;;;;;;-144.61;100.00;62523.38;5090027;28;20202;-73
2023/07/09 10:43:34;;;;;;;5.78;3.20;;;;;;;-144.61;100.00;62523.38;5089737;28;20734;-74
2023/07/09 10:46:05;;;;;;;5.30;3.53;;;;;;;-144.61;100.00;62523.38;5089664;28;20225;-74
2023/07/09 10:48:36;;;;;;;5.35;2.97;;;;;;;-144.61;100.00;62523.38;5089826;28;20226;-74
2023/07/09 10:51:04;;;;;;;4.43;3.00;;;;;;;-144.61;100.00;62523.38;5089453;28;20198;-76
2023/07/09 10:53:37;;;;;;;3.88;2.92;;;;;;;-144.61;100.00;62523.38;5089904;28;20297;-75
2023/07/09 10:56:11;;;;;;;3.72;3.25;;;;;;;-144.61;100.00;62523.38;5089632;28;20198;-73
2023/07/09 10:58:44;;;;;;;5.10;2.78;;;;;;;-144.61;100.00;62523.38;5088887;28;20202;-73
2023/07/09 11:01:15;;;;;;;3.00;2.70;;;;;;;-144.61;100.00;62523.38;5071582;28;20244;-75
2023/07/09 11:03:48;;;;;;;2.90;2.50;;;;;;;-144.61;100.00;62523.38;5068664;28;20236;-74
2023/07/09 11:06:20;;;;;;;3.60;2.88;;;;;;;-144.61;100.00;62523.38;5087174;28;20267;-77
2023/07/09 11:08:52;;;;;;;3.58;2.80;;;;;;;-144.61;100.00;62523.38;5088473;28;20210;-74
2023/07/09 11:11:29;;;;;;;6.18;3.00;;;;;;;-144.61;100.00;62523.38;5088534;28;20203;-75
2023/07/09 11:14:00;;;;;;;3.53;2.60;;;;;;;-144.61;100.00;62523.38;5100800;28;20193;-73
2023/07/09 11:16:33;;;;;;;4.28;2.67;;;;;;;-144.61;100.00;62523.38;5068582;28;20520;-76